sensor_id;sensor_type;location;lat;lon;timestamp;temperature;humidity
52869;DHT22;39100;53.480;6.158;2024-03-08T00:01:30;4.70;99.90
52869;DHT22;39100;53.480;6.158;2024-03-08T00:03:56;4.70;99.90
52869;DHT22;39100;53.480;6.158;2024-03-08T00:06:22;4.70;99.90
52869;DHT22;39100;53.480;6.158;2024-03-08T00:08:47;4.70;99.90
52869;DHT22;39100;53.480;6.158;2024-03-08T00:11:13;4.70;99.90
52869;DHT22;39100;53.480;6.158;2024-03-08T00:13:39;4.60;99.90
52869;DHT22;39100;53.480;6.158;2024-03-08T00:16:04;4.60;99.90
52869;DHT22;39100;53.480;6.158;2024-03-08T00:18:30;4.50;99.90
52869;DHT22;39100;53.480;6.158;2024-03-08T00:20:55;4.50;99.90
52869;DHT22;39100;53.480;6.158;2024-03-08T00:23:21;4.50;99.90
52869;DHT22;39100;53.480;6.158;2024-03-08T00:25:47;4.60;99.90
52869;DHT22;39100;53.480;6.158;2024-03-08T00:28:12;4.50;99.90
52869;DHT22;39100;53.480;6.158;2024-03-08T00:30:40;4.50;99.90
52869;DHT22;39100;53.480;6.158;2024-03-08T00:33:06;4.50;99.90
52869;DHT22;39100;53.480;6.158;2024-03-08T00:35:31;4.50;99.90
52869;DHT22;39100;53.480;6.158;2024-03-08T00:37:57;4.50;99.90
52869;DHT22;39100;53.480;6.158;2024-03-08T00:40:22;4.50;99.90
52869;DHT22;39100;53.480;6.158;2024-03-08T00:42:48;4.50;99.90
52869;DHT22;39100;53.480;6.158;2024-03-08T00:45:14;4.70;99.90
52869;DHT22;39100;53.480;6.158;2024-03-08T00:47:39;4.40;99.90
52869;DHT22;39100;53.480;6.158;2024-03-08T00:50:07;5.20;99.90
52869;DHT22;39100;53.480;6.158;2024-03-08T00:52:33;4.40;99.90
52869;DHT22;39100;53.480;6.158;2024-03-08T00:55:00;4.80;99.90
52869;DHT22;39100;53.480;6.158;2024-03-08T00:57:25;4.40;99.90
52869;DHT22;39100;53.480;6.158;2024-03-08T00:59:51;4.40;99.90
52869;DHT22;39100;53.480;6.158;2024-03-08T01:02:18;4.40;99.90
52869;DHT22;39100;53.480;6.158;2024-03-08T01:04:44;4.20;99.90
52869;DHT22;39100;53.480;6.158;2024-03-08T01:07:10;4.60;99.90
52869;DHT22;39100;53.480;6.158;2024-03-08T01:09:36;4.30;99.90
52869;DHT22;39100;53.480;6.158;2024-03-08T01:12:01;4.30;99.90
52869;DHT22;39100;53.480;6.158;2024-03-08T01:14:27;4.30;99.90
52869;DHT22;39100;53.480;6.158;2024-03-08T01:16:54;4.30;99.90
52869;DHT22;39100;53.480;6.158;2024-03-08T01:19:20;4.20;99.90
52869;DHT22;39100;53.480;6.158;2024-03-08T01:21:46;4.20;99.90
52869;DHT22;39100;53.480;6.158;2024-03-08T01:24:11;4.20;99.90
52869;DHT22;39100;53.480;6.158;2024-03-08T01:26:37;4.10;99.90
52869;DHT22;39100;53.480;6.158;2024-03-08T01:29:04;4.10;99.90
52869;DHT22;39100;53.480;6.158;2024-03-08T01:31:30;4.10;99.90
52869;DHT22;39100;53.480;6.158;2024-03-08T01:33:56;4.10;99.90
52869;DHT22;39100;53.480;6.158;2024-03-08T01:36:22;4.10;99.90
52869;DHT22;39100;53.480;6.158;2024-03-08T01:38:48;4.10;99.90
52869;DHT22;39100;53.480;6.158;2024-03-08T01:41:14;4.10;99.90
52869;DHT22;39100;53.480;6.158;2024-03-08T01:43:41;4.10;99.90
52869;DHT22;39100;53.480;6.158;2024-03-08T01:46:07;4.00;99.90
52869;DHT22;39100;53.480;6.158;2024-03-08T01:48:34;4.00;99.90
52869;DHT22;39100;53.480;6.158;2024-03-08T01:51:00;4.00;99.90
52869;DHT22;39100;53.480;6.158;2024-03-08T01:53:27;3.90;99.90
52869;DHT22;39100;53.480;6.158;2024-03-08T01:55:56;3.90;99.90
52869;DHT22;39100;53.480;6.158;2024-03-08T01:58:23;3.90;99.90
52869;DHT22;39100;53.480;6.158;2024-03-08T02:00:49;3.90;99.90
52869;DHT22;39100;53.480;6.158;2024-03-08T02:03:18;3.80;99.90
52869;DHT22;39100;53.480;6.158;2024-03-08T02:05:44;3.80;99.90
52869;DHT22;39100;53.480;6.158;2024-03-08T02:08:10;3.80;99.90
52869;DHT22;39100;53.480;6.158;2024-03-08T02:10:43;3.80;99.90
52869;DHT22;39100;53.480;6.158;2024-03-08T02:13:09;3.70;99.90
52869;DHT22;39100;53.480;6.158;2024-03-08T02:15:57;3.70;99.90
52869;DHT22;39100;53.480;6.158;2024-03-08T02:18:25;3.70;99.90
52869;DHT22;39100;53.480;6.158;2024-03-08T02:20:54;3.70;99.90
52869;DHT22;39100;53.480;6.158;2024-03-08T02:23:20;3.70;99.90
52869;DHT22;39100;53.480;6.158;2024-03-08T02:25:46;3.70;99.90
52869;DHT22;39100;53.480;6.158;2024-03-08T02:28:13;3.70;99.90
52869;DHT22;39100;53.480;6.158;2024-03-08T02:30:39;3.70;99.90
52869;DHT22;39100;53.480;6.158;2024-03-08T02:33:06;3.60;99.90
52869;DHT22;39100;53.480;6.158;2024-03-08T02:35:32;3.60;99.90
52869;DHT22;39100;53.480;6.158;2024-03-08T02:37:59;3.60;99.90
52869;DHT22;39100;53.480;6.158;2024-03-08T02:40:24;3.50;99.90
52869;DHT22;39100;53.480;6.158;2024-03-08T02:42:50;3.50;99.90
52869;DHT22;39100;53.480;6.158;2024-03-08T02:45:16;3.50;99.90
52869;DHT22;39100;53.480;6.158;2024-03-08T02:47:41;3.50;99.90
52869;DHT22;39100;53.480;6.158;2024-03-08T02:50:07;3.50;99.90
52869;DHT22;39100;53.480;6.158;2024-03-08T02:52:36;3.50;99.90
52869;DHT22;39100;53.480;6.158;2024-03-08T02:55:02;3.50;99.90
52869;DHT22;39100;53.480;6.158;2024-03-08T02:57:28;3.40;99.90
52869;DHT22;39100;53.480;6.158;2024-03-08T02:59:54;3.40;99.90
52869;DHT22;39100;53.480;6.158;2024-03-08T03:02:19;3.40;99.90
52869;DHT22;39100;53.480;6.158;2024-03-08T03:04:45;3.40;99.90
52869;DHT22;39100;53.480;6.158;2024-03-08T03:07:11;3.30;99.90
52869;DHT22;39100;53.480;6.158;2024-03-08T03:09:36;3.40;99.90
52869;DHT22;39100;53.480;6.158;2024-03-08T03:12:02;3.30;99.90
52869;DHT22;39100;53.480;6.158;2024-03-08T03:14:28;3.40;99.90
52869;DHT22;39100;53.480;6.158;2024-03-08T03:16:54;3.30;99.90
52869;DHT22;39100;53.480;6.158;2024-03-08T03:19:20;3.30;99.90
52869;DHT22;39100;53.480;6.158;2024-03-08T03:21:46;3.30;99.90
52869;DHT22;39100;53.480;6.158;2024-03-08T03:24:12;3.20;99.90
52869;DHT22;39100;53.480;6.158;2024-03-08T03:26:41;3.30;99.90
52869;DHT22;39100;53.480;6.158;2024-03-08T03:29:09;3.20;99.90
52869;DHT22;39100;53.480;6.158;2024-03-08T03:31:36;3.20;99.90
52869;DHT22;39100;53.480;6.158;2024-03-08T03:34:02;3.20;99.90
52869;DHT22;39100;53.480;6.158;2024-03-08T03:36:32;3.20;99.90
52869;DHT22;39100;53.480;6.158;2024-03-08T03:38:58;3.10;99.90
52869;DHT22;39100;53.480;6.158;2024-03-08T03:41:35;3.20;99.90
52869;DHT22;39100;53.480;6.158;2024-03-08T03:44:00;3.10;99.90
52869;DHT22;39100;53.480;6.158;2024-03-08T03:46:26;3.10;99.90
52869;DHT22;39100;53.480;6.158;2024-03-08T03:48:53;3.00;99.90
52869;DHT22;39100;53.480;6.158;2024-03-08T03:51:19;3.00;99.90
52869;DHT22;39100;53.480;6.158;2024-03-08T03:53:45;3.00;99.90
52869;DHT22;39100;53.480;6.158;2024-03-08T03:56:11;3.00;99.90
52869;DHT22;39100;53.480;6.158;2024-03-08T03:58:36;2.90;99.90
52869;DHT22;39100;53.480;6.158;2024-03-08T04:01:04;3.00;99.90
52869;DHT22;39100;53.480;6.158;2024-03-08T04:03:30;3.20;99.90
52869;DHT22;39100;53.480;6.158;2024-03-08T04:05:56;2.90;99.90
52869;DHT22;39100;53.480;6.158;2024-03-08T04:08:21;2.90;99.90
52869;DHT22;39100;53.480;6.158;2024-03-08T04:10:49;2.90;99.90
52869;DHT22;39100;53.480;6.158;2024-03-08T04:13:15;2.90;99.90
52869;DHT22;39100;53.480;6.158;2024-03-08T04:15:41;3.00;99.90
52869;DHT22;39100;53.480;6.158;2024-03-08T04:18:09;2.90;99.90
52869;DHT22;39100;53.480;6.158;2024-03-08T04:20:35;2.90;99.90
52869;DHT22;39100;53.480;6.158;2024-03-08T04:23:02;2.90;99.90
52869;DHT22;39100;53.480;6.158;2024-03-08T04:25:27;2.90;99.90
52869;DHT22;39100;53.480;6.158;2024-03-08T04:27:53;2.80;99.90
52869;DHT22;39100;53.480;6.158;2024-03-08T04:30:18;2.80;99.90
52869;DHT22;39100;53.480;6.158;2024-03-08T04:32:46;2.90;99.90
52869;DHT22;39100;53.480;6.158;2024-03-08T04:35:12;2.80;99.90
52869;DHT22;39100;53.480;6.158;2024-03-08T04:37:38;2.80;99.90
52869;DHT22;39100;53.480;6.158;2024-03-08T04:40:05;2.80;99.90
52869;DHT22;39100;53.480;6.158;2024-03-08T04:42:31;2.80;99.90
52869;DHT22;39100;53.480;6.158;2024-03-08T04:44:58;2.90;99.90
52869;DHT22;39100;53.480;6.158;2024-03-08T04:47:25;2.80;99.90
52869;DHT22;39100;53.480;6.158;2024-03-08T04:49:50;2.80;99.90
52869;DHT22;39100;53.480;6.158;2024-03-08T04:52:16;2.80;99.90
52869;DHT22;39100;53.480;6.158;2024-03-08T04:54:43;2.80;99.90
52869;DHT22;39100;53.480;6.158;2024-03-08T04:57:09;2.80;99.90
52869;DHT22;39100;53.480;6.158;2024-03-08T04:59:36;2.80;99.90
52869;DHT22;39100;53.480;6.158;2024-03-08T05:02:02;2.80;99.90
52869;DHT22;39100;53.480;6.158;2024-03-08T05:04:27;2.70;99.90
52869;DHT22;39100;53.480;6.158;2024-03-08T05:06:54;2.80;99.90
52869;DHT22;39100;53.480;6.158;2024-03-08T05:09:20;2.80;99.90
52869;DHT22;39100;53.480;6.158;2024-03-08T05:11:46;2.80;99.90
52869;DHT22;39100;53.480;6.158;2024-03-08T05:14:13;2.70;99.90
52869;DHT22;39100;53.480;6.158;2024-03-08T05:16:43;2.80;99.90
52869;DHT22;39100;53.480;6.158;2024-03-08T05:19:08;2.70;99.90
52869;DHT22;39100;53.480;6.158;2024-03-08T05:21:34;2.70;99.90
52869;DHT22;39100;53.480;6.158;2024-03-08T05:23:59;2.70;99.90
52869;DHT22;39100;53.480;6.158;2024-03-08T05:26:25;2.70;99.90
52869;DHT22;39100;53.480;6.158;2024-03-08T05:28:51;2.70;99.90
52869;DHT22;39100;53.480;6.158;2024-03-08T05:31:20;2.70;99.90
52869;DHT22;39100;53.480;6.158;2024-03-08T05:33:49;2.80;99.90
52869;DHT22;39100;53.480;6.158;2024-03-08T05:36:15;2.70;99.90
52869;DHT22;39100;53.480;6.158;2024-03-08T05:38:43;2.60;99.90
52869;DHT22;39100;53.480;6.158;2024-03-08T05:41:09;2.70;99.90
52869;DHT22;39100;53.480;6.158;2024-03-08T05:43:35;2.70;99.90
52869;DHT22;39100;53.480;6.158;2024-03-08T05:46:00;2.70;99.90
52869;DHT22;39100;53.480;6.158;2024-03-08T05:48:26;2.70;99.90
52869;DHT22;39100;53.480;6.158;2024-03-08T05:50:53;2.80;99.90
52869;DHT22;39100;53.480;6.158;2024-03-08T05:53:19;2.70;99.90
52869;DHT22;39100;53.480;6.158;2024-03-08T05:55:44;2.70;99.90
52869;DHT22;39100;53.480;6.158;2024-03-08T05:58:10;2.80;99.90
52869;DHT22;39100;53.480;6.158;2024-03-08T06:00:36;2.70;99.90
52869;DHT22;39100;53.480;6.158;2024-03-08T06:03:02;2.70;99.90
52869;DHT22;39100;53.480;6.158;2024-03-08T06:05:28;2.70;99.90
52869;DHT22;39100;53.480;6.158;2024-03-08T06:07:54;2.70;99.90
52869;DHT22;39100;53.480;6.158;2024-03-08T06:10:20;2.80;99.90
52869;DHT22;39100;53.480;6.158;2024-03-08T06:12:45;2.80;99.90
52869;DHT22;39100;53.480;6.158;2024-03-08T06:15:11;2.70;99.90
52869;DHT22;39100;53.480;6.158;2024-03-08T06:17:43;2.70;99.90
52869;DHT22;39100;53.480;6.158;2024-03-08T06:20:09;2.80;99.90
52869;DHT22;39100;53.480;6.158;2024-03-08T06:22:41;2.80;99.90
52869;DHT22;39100;53.480;6.158;2024-03-08T06:25:08;2.70;99.90
52869;DHT22;39100;53.480;6.158;2024-03-08T06:27:34;2.70;99.90
52869;DHT22;39100;53.480;6.158;2024-03-08T06:30:03;2.80;99.90
52869;DHT22;39100;53.480;6.158;2024-03-08T06:32:30;2.80;99.90
52869;DHT22;39100;53.480;6.158;2024-03-08T06:34:56;3.20;99.90
52869;DHT22;39100;53.480;6.158;2024-03-08T06:37:21;2.80;99.90
52869;DHT22;39100;53.480;6.158;2024-03-08T06:39:50;2.80;99.90
52869;DHT22;39100;53.480;6.158;2024-03-08T06:42:20;2.80;99.90
52869;DHT22;39100;53.480;6.158;2024-03-08T06:44:46;2.90;99.90
52869;DHT22;39100;53.480;6.158;2024-03-08T06:47:17;2.80;99.90
52869;DHT22;39100;53.480;6.158;2024-03-08T06:49:43;2.80;99.90
52869;DHT22;39100;53.480;6.158;2024-03-08T06:52:10;2.90;99.90
52869;DHT22;39100;53.480;6.158;2024-03-08T06:54:36;2.90;99.90
52869;DHT22;39100;53.480;6.158;2024-03-08T06:57:03;2.90;99.90
52869;DHT22;39100;53.480;6.158;2024-03-08T06:59:29;2.90;99.90
52869;DHT22;39100;53.480;6.158;2024-03-08T07:01:55;3.00;99.90
52869;DHT22;39100;53.480;6.158;2024-03-08T07:04:20;3.00;99.90
52869;DHT22;39100;53.480;6.158;2024-03-08T07:06:47;3.10;99.90
52869;DHT22;39100;53.480;6.158;2024-03-08T07:09:15;3.20;99.90
52869;DHT22;39100;53.480;6.158;2024-03-08T07:11:44;3.20;99.90
52869;DHT22;39100;53.480;6.158;2024-03-08T07:14:09;3.30;99.90
52869;DHT22;39100;53.480;6.158;2024-03-08T07:16:35;3.40;99.90
52869;DHT22;39100;53.480;6.158;2024-03-08T07:19:01;3.50;99.90
52869;DHT22;39100;53.480;6.158;2024-03-08T07:21:27;3.50;99.90
52869;DHT22;39100;53.480;6.158;2024-03-08T07:23:53;3.60;99.90
52869;DHT22;39100;53.480;6.158;2024-03-08T07:26:39;3.70;99.90
52869;DHT22;39100;53.480;6.158;2024-03-08T07:29:04;3.80;99.90
52869;DHT22;39100;53.480;6.158;2024-03-08T07:31:30;4.00;99.90
52869;DHT22;39100;53.480;6.158;2024-03-08T07:34:18;4.10;99.90
52869;DHT22;39100;53.480;6.158;2024-03-08T07:36:44;4.20;99.90
52869;DHT22;39100;53.480;6.158;2024-03-08T07:39:09;4.20;99.90
52869;DHT22;39100;53.480;6.158;2024-03-08T07:41:38;4.40;99.90
52869;DHT22;39100;53.480;6.158;2024-03-08T07:44:08;4.50;99.90
52869;DHT22;39100;53.480;6.158;2024-03-08T07:46:34;4.70;99.90
52869;DHT22;39100;53.480;6.158;2024-03-08T07:49:00;4.80;99.90
52869;DHT22;39100;53.480;6.158;2024-03-08T07:51:26;5.00;99.90
52869;DHT22;39100;53.480;6.158;2024-03-08T07:53:51;5.00;99.90
52869;DHT22;39100;53.480;6.158;2024-03-08T07:56:17;5.00;99.90
52869;DHT22;39100;53.480;6.158;2024-03-08T07:58:44;5.10;99.90
52869;DHT22;39100;53.480;6.158;2024-03-08T08:01:19;5.20;99.90
52869;DHT22;39100;53.480;6.158;2024-03-08T08:03:46;5.30;99.90
52869;DHT22;39100;53.480;6.158;2024-03-08T08:06:13;5.30;99.90
52869;DHT22;39100;53.480;6.158;2024-03-08T08:08:44;5.40;99.90
52869;DHT22;39100;53.480;6.158;2024-03-08T08:11:10;5.50;99.90
52869;DHT22;39100;53.480;6.158;2024-03-08T08:13:36;5.60;99.90
52869;DHT22;39100;53.480;6.158;2024-03-08T08:16:05;5.80;99.90
52869;DHT22;39100;53.480;6.158;2024-03-08T08:18:34;6.00;99.90
52869;DHT22;39100;53.480;6.158;2024-03-08T08:21:02;6.00;99.90
52869;DHT22;39100;53.480;6.158;2024-03-08T08:23:28;6.10;99.90
52869;DHT22;39100;53.480;6.158;2024-03-08T08:25:55;6.10;99.90
52869;DHT22;39100;53.480;6.158;2024-03-08T08:28:21;6.50;99.90
52869;DHT22;39100;53.480;6.158;2024-03-08T08:30:46;6.30;99.90
52869;DHT22;39100;53.480;6.158;2024-03-08T08:33:12;6.60;99.90
52869;DHT22;39100;53.480;6.158;2024-03-08T08:35:40;6.90;99.90
52869;DHT22;39100;53.480;6.158;2024-03-08T08:38:06;6.60;99.90
52869;DHT22;39100;53.480;6.158;2024-03-08T08:40:34;6.60;99.90
52869;DHT22;39100;53.480;6.158;2024-03-08T08:43:01;7.30;99.90
52869;DHT22;39100;53.480;6.158;2024-03-08T08:45:30;6.60;99.90
52869;DHT22;39100;53.480;6.158;2024-03-08T08:47:56;6.50;99.90
52869;DHT22;39100;53.480;6.158;2024-03-08T08:50:22;6.40;99.90
52869;DHT22;39100;53.480;6.158;2024-03-08T08:52:52;6.30;99.90
52869;DHT22;39100;53.480;6.158;2024-03-08T08:55:18;6.30;99.90
52869;DHT22;39100;53.480;6.158;2024-03-08T08:57:47;6.30;99.90
52869;DHT22;39100;53.480;6.158;2024-03-08T09:00:13;6.30;99.90
52869;DHT22;39100;53.480;6.158;2024-03-08T09:02:42;6.30;99.90
52869;DHT22;39100;53.480;6.158;2024-03-08T09:05:07;6.40;99.90
52869;DHT22;39100;53.480;6.158;2024-03-08T09:07:33;6.50;99.90
52869;DHT22;39100;53.480;6.158;2024-03-08T09:10:00;6.60;99.90
52869;DHT22;39100;53.480;6.158;2024-03-08T09:12:26;6.70;99.90
52869;DHT22;39100;53.480;6.158;2024-03-08T09:14:52;7.00;99.90
52869;DHT22;39100;53.480;6.158;2024-03-08T09:17:17;7.30;99.90
52869;DHT22;39100;53.480;6.158;2024-03-08T09:19:46;7.80;99.90
52869;DHT22;39100;53.480;6.158;2024-03-08T09:22:13;7.70;99.90
52869;DHT22;39100;53.480;6.158;2024-03-08T09:24:39;7.80;99.90
52869;DHT22;39100;53.480;6.158;2024-03-08T09:27:04;8.40;99.90
52869;DHT22;39100;53.480;6.158;2024-03-08T09:29:30;7.90;99.90
52869;DHT22;39100;53.480;6.158;2024-03-08T09:31:56;7.90;99.90
52869;DHT22;39100;53.480;6.158;2024-03-08T09:34:21;7.90;99.90
52869;DHT22;39100;53.480;6.158;2024-03-08T09:36:47;8.60;99.90
52869;DHT22;39100;53.480;6.158;2024-03-08T09:39:13;8.40;99.90
52869;DHT22;39100;53.480;6.158;2024-03-08T09:41:45;9.00;99.90
52869;DHT22;39100;53.480;6.158;2024-03-08T09:44:13;8.80;99.90
52869;DHT22;39100;53.480;6.158;2024-03-08T09:46:40;9.20;99.90
52869;DHT22;39100;53.480;6.158;2024-03-08T09:49:06;8.50;99.90
52869;DHT22;39100;53.480;6.158;2024-03-08T09:51:34;9.10;99.90
52869;DHT22;39100;53.480;6.158;2024-03-08T09:54:01;8.20;99.90
52869;DHT22;39100;53.480;6.158;2024-03-08T09:56:32;8.10;99.90
52869;DHT22;39100;53.480;6.158;2024-03-08T09:58:59;7.90;99.90
52869;DHT22;39100;53.480;6.158;2024-03-08T10:01:37;8.00;99.90
52869;DHT22;39100;53.480;6.158;2024-03-08T10:04:04;8.10;99.90
52869;DHT22;39100;53.480;6.158;2024-03-08T10:06:30;8.10;99.90
52869;DHT22;39100;53.480;6.158;2024-03-08T10:08:56;9.00;99.90
52869;DHT22;39100;53.480;6.158;2024-03-08T10:11:23;7.90;99.90
52869;DHT22;39100;53.480;6.158;2024-03-08T10:13:50;7.90;99.90
52869;DHT22;39100;53.480;6.158;2024-03-08T10:16:16;7.50;99.90
52869;DHT22;39100;53.480;6.158;2024-03-08T10:18:47;7.50;99.90
52869;DHT22;39100;53.480;6.158;2024-03-08T10:21:13;7.50;99.90
52869;DHT22;39100;53.480;6.158;2024-03-08T10:23:40;7.50;99.90
52869;DHT22;39100;53.480;6.158;2024-03-08T10:26:17;7.40;99.90
52869;DHT22;39100;53.480;6.158;2024-03-08T10:28:45;7.40;99.90
52869;DHT22;39100;53.480;6.158;2024-03-08T10:31:11;8.00;99.90
52869;DHT22;39100;53.480;6.158;2024-03-08T10:33:37;7.40;99.90
52869;DHT22;39100;53.480;6.158;2024-03-08T10:36:06;7.50;99.90
52869;DHT22;39100;53.480;6.158;2024-03-08T10:38:35;7.70;99.90
52869;DHT22;39100;53.480;6.158;2024-03-08T10:41:02;8.60;99.90
52869;DHT22;39100;53.480;6.158;2024-03-08T10:43:32;8.20;99.90
52869;DHT22;39100;53.480;6.158;2024-03-08T10:48:49;8.80;99.90
52869;DHT22;39100;53.480;6.158;2024-03-08T10:51:15;9.10;99.90
52869;DHT22;39100;53.480;6.158;2024-03-08T10:53:41;10.50;99.90
52869;DHT22;39100;53.480;6.158;2024-03-08T10:56:09;9.90;99.90
52869;DHT22;39100;53.480;6.158;2024-03-08T10:58:36;10.70;99.90
52869;DHT22;39100;53.480;6.158;2024-03-08T11:01:02;10.50;99.90
52869;DHT22;39100;53.480;6.158;2024-03-08T11:08:41;10.40;99.90
52869;DHT22;39100;53.480;6.158;2024-03-08T11:11:27;11.10;99.90
52869;DHT22;39100;53.480;6.158;2024-03-08T11:13:53;11.20;99.90
52869;DHT22;39100;53.480;6.158;2024-03-08T11:18:55;10.70;99.90
52869;DHT22;39100;53.480;6.158;2024-03-08T11:21:24;10.80;99.90
52869;DHT22;39100;53.480;6.158;2024-03-08T11:24:08;10.90;99.90
52869;DHT22;39100;53.480;6.158;2024-03-08T11:26:37;11.50;99.90
52869;DHT22;39100;53.480;6.158;2024-03-08T11:32:12;11.10;99.90
52869;DHT22;39100;53.480;6.158;2024-03-08T11:34:42;11.30;99.90
52869;DHT22;39100;53.480;6.158;2024-03-08T11:37:16;11.50;99.90
52869;DHT22;39100;53.480;6.158;2024-03-08T11:42:15;11.50;99.90
52869;DHT22;39100;53.480;6.158;2024-03-08T11:44:43;11.80;99.90
52869;DHT22;39100;53.480;6.158;2024-03-08T11:47:10;12.10;99.90
52869;DHT22;39100;53.480;6.158;2024-03-08T11:49:37;12.10;99.90
52869;DHT22;39100;53.480;6.158;2024-03-08T11:52:03;12.10;99.90
52869;DHT22;39100;53.480;6.158;2024-03-08T11:54:29;11.70;99.90
52869;DHT22;39100;53.480;6.158;2024-03-08T11:56:58;11.70;99.90
52869;DHT22;39100;53.480;6.158;2024-03-08T11:59:28;11.80;99.90
52869;DHT22;39100;53.480;6.158;2024-03-08T12:02:04;11.60;99.90
52869;DHT22;39100;53.480;6.158;2024-03-08T12:04:30;11.80;99.90
52869;DHT22;39100;53.480;6.158;2024-03-08T12:06:59;12.00;99.90
52869;DHT22;39100;53.480;6.158;2024-03-08T12:09:27;12.50;99.90
52869;DHT22;39100;53.480;6.158;2024-03-08T12:11:53;12.80;99.90
52869;DHT22;39100;53.480;6.158;2024-03-08T12:14:18;13.10;99.90
52869;DHT22;39100;53.480;6.158;2024-03-08T12:16:44;13.30;99.90
52869;DHT22;39100;53.480;6.158;2024-03-08T12:19:10;13.40;99.90
52869;DHT22;39100;53.480;6.158;2024-03-08T12:21:36;13.60;99.90
52869;DHT22;39100;53.480;6.158;2024-03-08T12:24:07;13.80;99.90
52869;DHT22;39100;53.480;6.158;2024-03-08T12:26:38;14.10;99.90
52869;DHT22;39100;53.480;6.158;2024-03-08T12:29:24;14.50;99.90
52869;DHT22;39100;53.480;6.158;2024-03-08T12:31:58;14.50;99.90
52869;DHT22;39100;53.480;6.158;2024-03-08T12:34:26;14.50;99.90
52869;DHT22;39100;53.480;6.158;2024-03-08T12:36:58;14.40;99.90
52869;DHT22;39100;53.480;6.158;2024-03-08T12:39:24;14.50;99.90
52869;DHT22;39100;53.480;6.158;2024-03-08T12:41:53;14.70;99.90
52869;DHT22;39100;53.480;6.158;2024-03-08T12:44:19;15.10;99.90
52869;DHT22;39100;53.480;6.158;2024-03-08T12:46:47;15.50;99.90
52869;DHT22;39100;53.480;6.158;2024-03-08T12:49:13;16.00;99.90
52869;DHT22;39100;53.480;6.158;2024-03-08T12:51:43;16.40;99.90
52869;DHT22;39100;53.480;6.158;2024-03-08T12:54:09;16.50;99.90
52869;DHT22;39100;53.480;6.158;2024-03-08T12:56:35;16.90;99.90
52869;DHT22;39100;53.480;6.158;2024-03-08T12:59:03;16.70;99.90
52869;DHT22;39100;53.480;6.158;2024-03-08T13:01:29;16.90;99.90
52869;DHT22;39100;53.480;6.158;2024-03-08T13:03:57;17.30;99.90
52869;DHT22;39100;53.480;6.158;2024-03-08T13:06:28;17.50;99.90
52869;DHT22;39100;53.480;6.158;2024-03-08T13:08:55;17.80;99.90
52869;DHT22;39100;53.480;6.158;2024-03-08T13:11:24;17.60;99.90
52869;DHT22;39100;53.480;6.158;2024-03-08T13:13:50;17.10;99.90
52869;DHT22;39100;53.480;6.158;2024-03-08T13:16:17;16.90;99.90
52869;DHT22;39100;53.480;6.158;2024-03-08T13:18:45;17.00;99.90
52869;DHT22;39100;53.480;6.158;2024-03-08T13:21:11;17.00;99.90
52869;DHT22;39100;53.480;6.158;2024-03-08T13:23:40;17.20;99.90
52869;DHT22;39100;53.480;6.158;2024-03-08T13:26:07;17.40;99.90
52869;DHT22;39100;53.480;6.158;2024-03-08T13:28:32;17.70;99.90
52869;DHT22;39100;53.480;6.158;2024-03-08T13:31:06;17.70;99.90
52869;DHT22;39100;53.480;6.158;2024-03-08T13:33:40;17.70;99.90
52869;DHT22;39100;53.480;6.158;2024-03-08T13:36:07;17.30;99.90
52869;DHT22;39100;53.480;6.158;2024-03-08T13:38:44;16.90;99.90
52869;DHT22;39100;53.480;6.158;2024-03-08T13:41:13;16.60;99.90
52869;DHT22;39100;53.480;6.158;2024-03-08T13:43:41;16.00;99.90
52869;DHT22;39100;53.480;6.158;2024-03-08T13:46:06;15.50;99.90
52869;DHT22;39100;53.480;6.158;2024-03-08T13:48:33;15.00;99.90
52869;DHT22;39100;53.480;6.158;2024-03-08T13:50:59;14.40;99.90
52869;DHT22;39100;53.480;6.158;2024-03-08T13:53:26;13.90;99.90
52869;DHT22;39100;53.480;6.158;2024-03-08T13:55:51;13.50;99.90
52869;DHT22;39100;53.480;6.158;2024-03-08T13:58:17;13.50;99.90
52869;DHT22;39100;53.480;6.158;2024-03-08T14:00:43;13.40;99.90
52869;DHT22;39100;53.480;6.158;2024-03-08T14:03:11;13.30;99.90
52869;DHT22;39100;53.480;6.158;2024-03-08T14:05:41;13.10;99.90
52869;DHT22;39100;53.480;6.158;2024-03-08T14:08:08;12.80;99.90
52869;DHT22;39100;53.480;6.158;2024-03-08T14:10:34;12.40;99.90
52869;DHT22;39100;53.480;6.158;2024-03-08T14:13:02;12.10;99.90
52869;DHT22;39100;53.480;6.158;2024-03-08T14:15:31;11.80;99.90
52869;DHT22;39100;53.480;6.158;2024-03-08T14:17:57;11.50;99.90
52869;DHT22;39100;53.480;6.158;2024-03-08T14:20:23;11.40;99.90
52869;DHT22;39100;53.480;6.158;2024-03-08T14:22:55;11.30;99.90
52869;DHT22;39100;53.480;6.158;2024-03-08T14:25:22;11.10;99.90
52869;DHT22;39100;53.480;6.158;2024-03-08T14:27:50;11.50;99.90
52869;DHT22;39100;53.480;6.158;2024-03-08T14:30:19;11.10;99.90
52869;DHT22;39100;53.480;6.158;2024-03-08T14:32:58;11.00;99.90
52869;DHT22;39100;53.480;6.158;2024-03-08T14:35:25;11.30;99.90
52869;DHT22;39100;53.480;6.158;2024-03-08T14:37:52;11.00;99.90
52869;DHT22;39100;53.480;6.158;2024-03-08T14:40:18;11.80;99.90
52869;DHT22;39100;53.480;6.158;2024-03-08T14:42:48;11.40;99.90
52869;DHT22;39100;53.480;6.158;2024-03-08T14:45:15;11.60;99.90
52869;DHT22;39100;53.480;6.158;2024-03-08T14:47:41;11.40;99.90
52869;DHT22;39100;53.480;6.158;2024-03-08T14:50:08;11.10;99.90
52869;DHT22;39100;53.480;6.158;2024-03-08T14:52:35;10.90;99.90
52869;DHT22;39100;53.480;6.158;2024-03-08T14:55:01;11.10;99.90
52869;DHT22;39100;53.480;6.158;2024-03-08T14:57:28;10.90;99.90
52869;DHT22;39100;53.480;6.158;2024-03-08T14:59:54;10.80;99.90
52869;DHT22;39100;53.480;6.158;2024-03-08T15:02:20;10.70;99.90
52869;DHT22;39100;53.480;6.158;2024-03-08T15:04:47;11.40;99.90
52869;DHT22;39100;53.480;6.158;2024-03-08T15:07:22;10.60;99.90
52869;DHT22;39100;53.480;6.158;2024-03-08T15:09:48;11.00;99.90
52869;DHT22;39100;53.480;6.158;2024-03-08T15:12:14;10.50;99.90
52869;DHT22;39100;53.480;6.158;2024-03-08T15:14:40;10.60;99.90
52869;DHT22;39100;53.480;6.158;2024-03-08T15:17:09;10.40;99.90
52869;DHT22;39100;53.480;6.158;2024-03-08T15:19:38;10.80;99.90
52869;DHT22;39100;53.480;6.158;2024-03-08T15:22:04;10.40;99.90
52869;DHT22;39100;53.480;6.158;2024-03-08T15:24:30;10.30;99.90
52869;DHT22;39100;53.480;6.158;2024-03-08T15:26:56;10.30;99.90
52869;DHT22;39100;53.480;6.158;2024-03-08T15:29:23;10.30;99.90
52869;DHT22;39100;53.480;6.158;2024-03-08T15:31:52;10.40;99.90
52869;DHT22;39100;53.480;6.158;2024-03-08T15:34:20;10.10;99.90
52869;DHT22;39100;53.480;6.158;2024-03-08T15:36:49;10.20;99.90
52869;DHT22;39100;53.480;6.158;2024-03-08T15:39:19;10.00;99.90
52869;DHT22;39100;53.480;6.158;2024-03-08T15:41:48;10.00;99.90
52869;DHT22;39100;53.480;6.158;2024-03-08T15:44:14;9.70;99.90
52869;DHT22;39100;53.480;6.158;2024-03-08T15:46:41;10.30;99.90
52869;DHT22;39100;53.480;6.158;2024-03-08T15:49:07;9.50;99.90
52869;DHT22;39100;53.480;6.158;2024-03-08T15:51:34;9.40;99.90
52869;DHT22;39100;53.480;6.158;2024-03-08T15:54:02;9.30;99.90
52869;DHT22;39100;53.480;6.158;2024-03-08T15:56:30;9.30;99.90
52869;DHT22;39100;53.480;6.158;2024-03-08T15:58:57;9.20;99.90